Decoded Metar for KRIC (RICHMOND in VA, USA) (IATA:RIC) | Meteo·Mobile Aviation Weather
aviador You're here:

KRIC Decoded Metar

RICHMOND in VA, USA
Report Time2018-09-21 10:54:00
UTC Time2018-09-21 11:29:52
Flight Rules vfr VFR
WindCalm
Visibility9999 m
Phenomena:N/A
Clouds:Broken 060 Hf
Broken 300 Hf
Expected CloudBase > 400 ft AGL from Temp-Dew spread
Ceiling6,000 ft
Temp19°C (ISA +4)
Dew Point18°C (94% RH)
QNH1024 hPa
Density Alt574 ft
Elevation164 ft
Report Wrong Elevation
Raw Report
METAR KRIC 211054Z 00000KT 10SM BKN060 BKN300 19/18 A3023 RMK AO2 SLP242
T01940183 $=

Extra information for KRIC:More info

Metar Taf Metar & Taf Last 4 Metars F.Rules Stats Wind Profile Meteogram Temp Stats Airport Information Weather charts Add Link Nearby VenuesMetar ALERT Operation Metar Decoded Social comments

AIRNAV info for KRIC